Airfield :
LOGIN :

Register | Disclaimer

   EN    FR    IT 

 










Legend :    VFR   Marginal VFR   IFR   Intensive IFR   Very Intensive IFR
Visi :
Ceiling :
>= 8 km
>= 3000ft
5 to 8 km
1000 to 3000 ft
1500m to 5 km
500 to 1000 ft
800 to 1500m
200 to 500 ft
< 800m
< 200 ft
Symbols :   Thunderstorms  Fog  Heavy snow  Heavy precipitations  Wind > 20 kt
SIGMETs :     Misc.  Thunderstorms  Icing  Turbulence  Mountain Waves  Volcanic Ashes






- Airport Elevation : 863 ft
- IATA code : ZAZ


LEZG - Zaragoza Aragon

CURRENT METAR :
  • 120900Z 10002KT CAVOK 26/16 Q1015

EXPIRED METARs :
  • 120830Z 05004KT 330V110 CAVOK 24/16 Q1015
  • 120800Z 05003KT 340V110 CAVOK 23/16 Q1015
  • 120730Z 12003KT 060V190 CAVOK 22/16 Q1015
  • 120700Z 09005KT CAVOK 21/16 Q1015
  • 120630Z VRB02KT CAVOK 20/16 Q1014

TAF TAF LEZG
Valid from the 12 at 06:00 until the 13 at 06:00 UTC


120500Z 1206/1306 VRB04KT 9999 FEW040 TX33/1215Z TN21/1206Z
TEMPO 1210/1215 22008KT
TEMPO 1216/1220 12008KT
PROB40
TEMPO 1212/1218 4000 TSRA SCT030CB BKN040



MET'MAP, your aeronautical weather chart ! - Copyright ORBIFLY December 2007 - Disclaimer

ORBIFLY MET'MAP TEAM :

Programming & Development : Alexandra Zaïnal
Concept & original design : Baudouin d'Aumeries
Assistance for programming : Marc-Olivier Méhu
Technical & hardware support : Manuel Goepfert

Contact : metmap@orbifly.com




SOURCES & CREDITS :

   NOAA